Hovedside
METAR-TAF:

METAR-TAF

Lufthavner :

Halmstad, Sverige

Halmstad lufthavn

breddegrad: 56-41N, lengdegrad: 012-50E, høyde over havet: 30 m

Gjeldene værobservasjon

Denne rapporten ble laget for 22 minutter siden, klokken 04:20 UTC
Vind 15 kt fra Vest
Temperatur 3°C
Luftfuktighet 70%
Trykk 998 hPa
Sikt 10 km eller mer
Spredte skyer i en høyde av 2700 ft
Brutte skyer i en høyde av 3500 ft

METAR: ESMT 250420Z 26015KT 9999 SCT027 BKN035 03/M02 Q0998

Tid: 06:42 (04:42 UTC)

Varsel

Denne rapporten ble laget for 1 time og 21 minutter siden, klokken 03:21 UTC
Varsel gyldig fra 25. klokken 04 UTC til 25. klokken 12 UTC
Vind 10 kt fra Vest
Sikt 10 km eller mer
Spredte skyer i en høyde av 3500 ft
Midlertidig
fra 25. klokken 06 UTC til 25. klokken 12 UTC
Vind 15 kt fra Vest-sørvest med vindkast opp mot 30 kt

TAF: ESMT 250321Z 2504/2512 26010KT 9999 SCT035 TEMPO 2506/2512 25015G30KT

Værobservasjoner og værvarsel for over 4000 flyplasser (METAR- og TAF-rapporter).

Tilgjengelige stasjoner er representert av de røde og gule prikkene på kartet.

Hold musepekeren over prikken for å se navnet på stasjonen.

Klikk så for å se værobservasjoner og -varsler.

For å forandre kartet kan du klikke på den grønne knappen med svart kryss for å zoome inn, på den grønne knappen med strek for å zoome ut, eller på de grønne pilene for å se tilstøtende kart.


METAR-TAF: